Aquinnah, Massachusetts
Current Conditions -  °F | °C
As of 8:53 PM on Saturday 22 Nov 2014 (Local Time) from KMVY Reporting Station
Overcast Overcast  
Wind Chill: 41°   Ceiling: 4700
Heat Index: 48°   Visibility: 10mi
Dew Point: 38°   Wind: 18mph
Humidity: 68%   Direction: 230°SW
Pressure: 30.15"   Gusts: 32mph
Location:  41.3536°N, 70.7417°W
Report Text: KMVY 230153Z AUTO 23016G28KT 10SM OVC047 09/03 A3015 RMK AO2 PK WND 23033/0131 SLP208 T00890033
Loading
Personal Weather Stations






























Interactive Weather Map New forecast layout! Learn more

10-Day Weather Forecast

Advertisements
Track Severe Weather on mobile